sensor_id;sensor_type;location;lat;lon;timestamp;P1;durP1;ratioP1;P2;durP2;ratioP2
51358;SDS011;37448;51.588;7.248;2024-03-02T00:01:53;2.30;;;1.75;;
51358;SDS011;37448;51.588;7.248;2024-03-02T00:03:54;2.60;;;1.92;;
51358;SDS011;37448;51.588;7.248;2024-03-02T00:05:54;2.00;;;1.35;;
51358;SDS011;37448;51.588;7.248;2024-03-02T00:07:55;2.63;;;1.45;;
51358;SDS011;37448;51.588;7.248;2024-03-02T00:09:57;2.47;;;1.35;;
51358;SDS011;37448;51.588;7.248;2024-03-02T00:12:00;2.72;;;1.80;;
51358;SDS011;37448;51.588;7.248;2024-03-02T00:14:00;2.38;;;1.63;;
51358;SDS011;37448;51.588;7.248;2024-03-02T00:16:01;2.45;;;1.42;;
51358;SDS011;37448;51.588;7.248;2024-03-02T00:18:01;3.20;;;1.50;;
51358;SDS011;37448;51.588;7.248;2024-03-02T00:20:02;2.70;;;1.40;;
51358;SDS011;37448;51.588;7.248;2024-03-02T00:22:03;2.75;;;1.50;;
51358;SDS011;37448;51.588;7.248;2024-03-02T00:24:07;2.90;;;1.73;;
51358;SDS011;37448;51.588;7.248;2024-03-02T00:26:20;3.38;;;1.30;;
51358;SDS011;37448;51.588;7.248;2024-03-02T00:28:21;2.47;;;1.23;;
51358;SDS011;37448;51.588;7.248;2024-03-02T00:32:50;2.42;;;1.45;;
51358;SDS011;37448;51.588;7.248;2024-03-02T00:34:53;1.60;;;1.27;;
51358;SDS011;37448;51.588;7.248;2024-03-02T00:36:53;2.25;;;1.40;;
51358;SDS011;37448;51.588;7.248;2024-03-02T00:38:57;2.22;;;1.30;;
51358;SDS011;37448;51.588;7.248;2024-03-02T00:40:58;2.10;;;1.30;;
51358;SDS011;37448;51.588;7.248;2024-03-02T00:43:11;3.05;;;1.67;;
51358;SDS011;37448;51.588;7.248;2024-03-02T00:45:18;2.25;;;1.52;;
51358;SDS011;37448;51.588;7.248;2024-03-02T00:47:19;1.85;;;1.17;;
51358;SDS011;37448;51.588;7.248;2024-03-02T00:49:23;2.30;;;1.67;;
51358;SDS011;37448;51.588;7.248;2024-03-02T00:51:25;2.83;;;1.27;;
51358;SDS011;37448;51.588;7.248;2024-03-02T00:53:26;1.92;;;1.15;;
51358;SDS011;37448;51.588;7.248;2024-03-02T00:55:27;3.30;;;1.20;;
51358;SDS011;37448;51.588;7.248;2024-03-02T00:57:28;1.85;;;1.38;;
51358;SDS011;37448;51.588;7.248;2024-03-02T00:59:34;1.50;;;0.98;;
51358;SDS011;37448;51.588;7.248;2024-03-02T01:01:34;4.75;;;1.70;;
51358;SDS011;37448;51.588;7.248;2024-03-02T01:03:35;1.85;;;1.20;;
51358;SDS011;37448;51.588;7.248;2024-03-02T01:05:41;2.38;;;1.30;;
51358;SDS011;37448;51.588;7.248;2024-03-02T01:07:42;1.95;;;1.52;;
51358;SDS011;37448;51.588;7.248;2024-03-02T01:09:42;1.85;;;1.40;;
51358;SDS011;37448;51.588;7.248;2024-03-02T01:11:43;2.53;;;1.40;;
51358;SDS011;37448;51.588;7.248;2024-03-02T01:13:44;2.28;;;1.27;;
51358;SDS011;37448;51.588;7.248;2024-03-02T01:15:44;1.70;;;1.17;;
51358;SDS011;37448;51.588;7.248;2024-03-02T01:17:45;2.28;;;1.38;;
51358;SDS011;37448;51.588;7.248;2024-03-02T01:19:45;1.38;;;1.08;;
51358;SDS011;37448;51.588;7.248;2024-03-02T01:21:46;2.38;;;1.30;;
51358;SDS011;37448;51.588;7.248;2024-03-02T01:23:46;1.73;;;1.13;;
51358;SDS011;37448;51.588;7.248;2024-03-02T01:25:47;1.95;;;1.13;;
51358;SDS011;37448;51.588;7.248;2024-03-02T01:27:47;2.35;;;1.52;;
51358;SDS011;37448;51.588;7.248;2024-03-02T01:29:48;1.67;;;1.00;;
51358;SDS011;37448;51.588;7.248;2024-03-02T01:31:48;2.50;;;0.95;;
51358;SDS011;37448;51.588;7.248;2024-03-02T01:33:50;1.55;;;1.08;;
51358;SDS011;37448;51.588;7.248;2024-03-02T01:35:51;1.42;;;1.33;;
51358;SDS011;37448;51.588;7.248;2024-03-02T01:37:51;2.58;;;1.13;;
51358;SDS011;37448;51.588;7.248;2024-03-02T01:39:51;1.98;;;1.08;;
51358;SDS011;37448;51.588;7.248;2024-03-02T01:41:52;1.20;;;0.80;;
51358;SDS011;37448;51.588;7.248;2024-03-02T01:43:52;1.58;;;0.82;;
51358;SDS011;37448;51.588;7.248;2024-03-02T01:45:52;2.08;;;0.90;;
51358;SDS011;37448;51.588;7.248;2024-03-02T01:47:53;1.58;;;0.68;;
51358;SDS011;37448;51.588;7.248;2024-03-02T01:49:54;1.60;;;0.90;;
51358;SDS011;37448;51.588;7.248;2024-03-02T01:51:54;2.45;;;0.80;;
51358;SDS011;37448;51.588;7.248;2024-03-02T01:53:54;2.58;;;1.38;;
51358;SDS011;37448;51.588;7.248;2024-03-02T01:55:55;1.63;;;0.90;;
51358;SDS011;37448;51.588;7.248;2024-03-02T01:57:55;1.83;;;1.20;;
51358;SDS011;37448;51.588;7.248;2024-03-02T01:59:56;1.80;;;1.00;;
51358;SDS011;37448;51.588;7.248;2024-03-02T02:01:56;1.38;;;0.90;;
51358;SDS011;37448;51.588;7.248;2024-03-02T02:03:57;2.03;;;1.08;;
51358;SDS011;37448;51.588;7.248;2024-03-02T02:05:57;1.33;;;0.90;;
51358;SDS011;37448;51.588;7.248;2024-03-02T02:07:58;1.00;;;0.90;;
51358;SDS011;37448;51.588;7.248;2024-03-02T02:09:58;2.05;;;0.98;;
51358;SDS011;37448;51.588;7.248;2024-03-02T02:11:58;1.40;;;0.93;;
51358;SDS011;37448;51.588;7.248;2024-03-02T02:13:59;1.58;;;1.02;;
51358;SDS011;37448;51.588;7.248;2024-03-02T02:16:06;2.75;;;1.20;;
51358;SDS011;37448;51.588;7.248;2024-03-02T02:18:07;2.47;;;1.15;;
51358;SDS011;37448;51.588;7.248;2024-03-02T02:20:08;1.40;;;0.90;;
51358;SDS011;37448;51.588;7.248;2024-03-02T02:22:09;2.53;;;1.02;;
51358;SDS011;37448;51.588;7.248;2024-03-02T02:24:10;1.27;;;0.88;;
51358;SDS011;37448;51.588;7.248;2024-03-02T02:26:11;1.75;;;1.23;;
51358;SDS011;37448;51.588;7.248;2024-03-02T02:28:12;1.40;;;1.05;;
51358;SDS011;37448;51.588;7.248;2024-03-02T02:30:12;3.25;;;1.20;;
51358;SDS011;37448;51.588;7.248;2024-03-02T02:32:13;3.22;;;1.08;;
51358;SDS011;37448;51.588;7.248;2024-03-02T02:34:14;2.05;;;1.17;;
51358;SDS011;37448;51.588;7.248;2024-03-02T02:36:15;1.20;;;0.73;;
51358;SDS011;37448;51.588;7.248;2024-03-02T02:38:15;1.27;;;0.85;;
51358;SDS011;37448;51.588;7.248;2024-03-02T02:40:16;1.67;;;1.20;;
51358;SDS011;37448;51.588;7.248;2024-03-02T02:42:18;2.30;;;1.02;;
51358;SDS011;37448;51.588;7.248;2024-03-02T02:44:19;1.70;;;0.88;;
51358;SDS011;37448;51.588;7.248;2024-03-02T02:46:19;1.10;;;0.75;;
51358;SDS011;37448;51.588;7.248;2024-03-02T02:48:19;2.67;;;0.80;;
51358;SDS011;37448;51.588;7.248;2024-03-02T02:50:20;2.10;;;1.15;;
51358;SDS011;37448;51.588;7.248;2024-03-02T02:52:21;2.00;;;1.08;;
51358;SDS011;37448;51.588;7.248;2024-03-02T02:54:21;1.30;;;0.73;;
51358;SDS011;37448;51.588;7.248;2024-03-02T02:56:21;2.53;;;1.05;;
51358;SDS011;37448;51.588;7.248;2024-03-02T02:58:22;1.45;;;0.77;;
51358;SDS011;37448;51.588;7.248;2024-03-02T03:00:22;2.15;;;0.88;;
51358;SDS011;37448;51.588;7.248;2024-03-02T03:02:23;1.42;;;0.70;;
51358;SDS011;37448;51.588;7.248;2024-03-02T03:04:23;2.47;;;1.05;;
51358;SDS011;37448;51.588;7.248;2024-03-02T03:06:24;1.55;;;0.80;;
51358;SDS011;37448;51.588;7.248;2024-03-02T03:08:24;1.15;;;0.73;;
51358;SDS011;37448;51.588;7.248;2024-03-02T03:10:24;1.63;;;0.80;;
51358;SDS011;37448;51.588;7.248;2024-03-02T03:12:26;1.73;;;0.85;;
51358;SDS011;37448;51.588;7.248;2024-03-02T03:14:27;2.20;;;1.17;;
51358;SDS011;37448;51.588;7.248;2024-03-02T03:16:27;1.58;;;0.98;;
51358;SDS011;37448;51.588;7.248;2024-03-02T03:18:27;1.88;;;1.05;;
51358;SDS011;37448;51.588;7.248;2024-03-02T03:20:28;1.45;;;0.73;;
51358;SDS011;37448;51.588;7.248;2024-03-02T03:22:28;1.95;;;0.90;;
51358;SDS011;37448;51.588;7.248;2024-03-02T03:24:29;4.25;;;1.45;;
51358;SDS011;37448;51.588;7.248;2024-03-02T03:26:29;4.65;;;0.88;;
51358;SDS011;37448;51.588;7.248;2024-03-02T03:28:29;1.92;;;0.90;;
51358;SDS011;37448;51.588;7.248;2024-03-02T03:30:30;1.40;;;0.80;;
51358;SDS011;37448;51.588;7.248;2024-03-02T03:32:30;2.13;;;0.75;;
51358;SDS011;37448;51.588;7.248;2024-03-02T03:34:34;1.90;;;1.00;;
51358;SDS011;37448;51.588;7.248;2024-03-02T03:36:35;3.85;;;1.15;;
51358;SDS011;37448;51.588;7.248;2024-03-02T03:38:35;3.03;;;0.90;;
51358;SDS011;37448;51.588;7.248;2024-03-02T03:40:35;1.13;;;0.82;;
51358;SDS011;37448;51.588;7.248;2024-03-02T03:42:36;2.40;;;1.00;;
51358;SDS011;37448;51.588;7.248;2024-03-02T03:44:37;0.90;;;0.73;;
51358;SDS011;37448;51.588;7.248;2024-03-02T03:46:37;3.15;;;0.70;;
51358;SDS011;37448;51.588;7.248;2024-03-02T03:48:37;1.05;;;0.70;;
51358;SDS011;37448;51.588;7.248;2024-03-02T03:50:38;1.65;;;0.70;;
51358;SDS011;37448;51.588;7.248;2024-03-02T03:52:38;1.15;;;0.85;;
51358;SDS011;37448;51.588;7.248;2024-03-02T03:54:38;1.40;;;0.77;;
51358;SDS011;37448;51.588;7.248;2024-03-02T03:56:39;0.80;;;0.60;;
51358;SDS011;37448;51.588;7.248;2024-03-02T03:58:39;2.22;;;0.90;;
51358;SDS011;37448;51.588;7.248;2024-03-02T04:00:39;2.05;;;0.80;;
51358;SDS011;37448;51.588;7.248;2024-03-02T04:02:40;2.55;;;1.10;;
51358;SDS011;37448;51.588;7.248;2024-03-02T04:04:40;2.53;;;1.02;;
51358;SDS011;37448;51.588;7.248;2024-03-02T04:06:40;2.47;;;0.77;;
51358;SDS011;37448;51.588;7.248;2024-03-02T04:08:41;0.93;;;0.70;;
51358;SDS011;37448;51.588;7.248;2024-03-02T04:10:41;1.80;;;0.68;;
51358;SDS011;37448;51.588;7.248;2024-03-02T04:12:42;1.73;;;0.75;;
51358;SDS011;37448;51.588;7.248;2024-03-02T04:14:42;1.92;;;0.70;;
51358;SDS011;37448;51.588;7.248;2024-03-02T04:16:43;1.52;;;1.08;;
51358;SDS011;37448;51.588;7.248;2024-03-02T04:18:43;1.15;;;1.00;;
51358;SDS011;37448;51.588;7.248;2024-03-02T04:20:44;1.45;;;0.80;;
51358;SDS011;37448;51.588;7.248;2024-03-02T04:22:44;1.73;;;0.70;;
51358;SDS011;37448;51.588;7.248;2024-03-02T04:24:44;0.73;;;0.40;;
51358;SDS011;37448;51.588;7.248;2024-03-02T04:26:45;2.55;;;1.00;;
51358;SDS011;37448;51.588;7.248;2024-03-02T04:28:45;3.33;;;0.70;;
51358;SDS011;37448;51.588;7.248;2024-03-02T04:30:45;1.35;;;0.80;;
51358;SDS011;37448;51.588;7.248;2024-03-02T04:32:46;2.08;;;0.75;;
51358;SDS011;37448;51.588;7.248;2024-03-02T04:34:46;1.80;;;0.60;;
51358;SDS011;37448;51.588;7.248;2024-03-02T04:36:47;3.80;;;0.68;;
51358;SDS011;37448;51.588;7.248;2024-03-02T04:38:47;2.05;;;0.77;;
51358;SDS011;37448;51.588;7.248;2024-03-02T04:40:48;1.17;;;0.50;;
51358;SDS011;37448;51.588;7.248;2024-03-02T04:42:48;2.55;;;0.90;;
51358;SDS011;37448;51.588;7.248;2024-03-02T04:44:48;1.23;;;0.65;;
51358;SDS011;37448;51.588;7.248;2024-03-02T04:46:49;0.80;;;0.50;;
51358;SDS011;37448;51.588;7.248;2024-03-02T04:48:49;2.08;;;0.60;;
51358;SDS011;37448;51.588;7.248;2024-03-02T04:50:55;1.08;;;0.68;;
51358;SDS011;37448;51.588;7.248;2024-03-02T04:52:55;1.13;;;0.50;;
51358;SDS011;37448;51.588;7.248;2024-03-02T04:54:55;1.20;;;0.65;;
51358;SDS011;37448;51.588;7.248;2024-03-02T04:57:11;1.88;;;0.77;;
51358;SDS011;37448;51.588;7.248;2024-03-02T04:59:11;1.02;;;0.50;;
51358;SDS011;37448;51.588;7.248;2024-03-02T05:01:11;2.05;;;0.70;;
51358;SDS011;37448;51.588;7.248;2024-03-02T05:03:12;1.75;;;0.50;;
51358;SDS011;37448;51.588;7.248;2024-03-02T05:05:13;1.15;;;0.70;;
51358;SDS011;37448;51.588;7.248;2024-03-02T05:07:15;1.25;;;0.55;;
51358;SDS011;37448;51.588;7.248;2024-03-02T05:09:16;1.98;;;0.90;;
51358;SDS011;37448;51.588;7.248;2024-03-02T05:11:16;2.40;;;0.60;;
51358;SDS011;37448;51.588;7.248;2024-03-02T05:13:39;3.03;;;0.80;;
51358;SDS011;37448;51.588;7.248;2024-03-02T05:15:39;1.10;;;0.77;;
51358;SDS011;37448;51.588;7.248;2024-03-02T05:17:41;2.47;;;0.70;;
51358;SDS011;37448;51.588;7.248;2024-03-02T05:19:44;0.60;;;0.47;;
51358;SDS011;37448;51.588;7.248;2024-03-02T05:21:45;0.82;;;0.70;;
51358;SDS011;37448;51.588;7.248;2024-03-02T05:23:45;3.25;;;0.85;;
51358;SDS011;37448;51.588;7.248;2024-03-02T05:25:46;2.35;;;0.82;;
51358;SDS011;37448;51.588;7.248;2024-03-02T05:27:46;2.03;;;0.93;;
51358;SDS011;37448;51.588;7.248;2024-03-02T05:29:46;2.22;;;0.80;;
51358;SDS011;37448;51.588;7.248;2024-03-02T05:31:47;2.08;;;1.10;;
51358;SDS011;37448;51.588;7.248;2024-03-02T05:33:48;1.70;;;0.68;;
51358;SDS011;37448;51.588;7.248;2024-03-02T05:35:49;1.73;;;0.82;;
51358;SDS011;37448;51.588;7.248;2024-03-02T05:37:52;2.42;;;0.50;;
51358;SDS011;37448;51.588;7.248;2024-03-02T05:39:52;2.17;;;0.85;;
51358;SDS011;37448;51.588;7.248;2024-03-02T05:41:53;1.70;;;0.90;;
51358;SDS011;37448;51.588;7.248;2024-03-02T05:43:53;1.20;;;0.80;;
51358;SDS011;37448;51.588;7.248;2024-03-02T05:45:54;4.57;;;1.73;;
51358;SDS011;37448;51.588;7.248;2024-03-02T05:47:54;3.05;;;0.90;;
51358;SDS011;37448;51.588;7.248;2024-03-02T05:49:55;1.67;;;0.95;;
51358;SDS011;37448;51.588;7.248;2024-03-02T05:51:56;1.42;;;0.70;;
51358;SDS011;37448;51.588;7.248;2024-03-02T05:53:56;1.33;;;0.88;;
51358;SDS011;37448;51.588;7.248;2024-03-02T05:55:56;2.30;;;1.15;;
51358;SDS011;37448;51.588;7.248;2024-03-02T05:57:57;1.67;;;0.85;;
51358;SDS011;37448;51.588;7.248;2024-03-02T06:00:06;1.00;;;0.82;;
51358;SDS011;37448;51.588;7.248;2024-03-02T06:02:12;1.33;;;0.82;;
51358;SDS011;37448;51.588;7.248;2024-03-02T06:04:13;2.17;;;0.80;;
51358;SDS011;37448;51.588;7.248;2024-03-02T06:06:14;2.00;;;0.95;;
51358;SDS011;37448;51.588;7.248;2024-03-02T06:08:14;2.95;;;1.10;;
51358;SDS011;37448;51.588;7.248;2024-03-02T06:10:15;1.67;;;0.98;;
51358;SDS011;37448;51.588;7.248;2024-03-02T06:12:15;4.47;;;1.33;;
51358;SDS011;37448;51.588;7.248;2024-03-02T06:14:15;2.22;;;1.35;;
51358;SDS011;37448;51.588;7.248;2024-03-02T06:16:16;2.70;;;1.35;;
51358;SDS011;37448;51.588;7.248;2024-03-02T06:18:17;2.08;;;1.00;;
51358;SDS011;37448;51.588;7.248;2024-03-02T06:20:17;2.13;;;1.42;;
51358;SDS011;37448;51.588;7.248;2024-03-02T06:22:17;1.45;;;1.23;;
51358;SDS011;37448;51.588;7.248;2024-03-02T06:24:19;1.92;;;1.30;;
51358;SDS011;37448;51.588;7.248;2024-03-02T06:26:19;2.55;;;1.40;;
51358;SDS011;37448;51.588;7.248;2024-03-02T06:28:20;2.90;;;1.23;;
51358;SDS011;37448;51.588;7.248;2024-03-02T06:30:20;3.88;;;1.20;;
51358;SDS011;37448;51.588;7.248;2024-03-02T06:32:21;1.95;;;1.10;;
51358;SDS011;37448;51.588;7.248;2024-03-02T06:34:23;1.33;;;1.00;;
51358;SDS011;37448;51.588;7.248;2024-03-02T06:36:23;1.77;;;1.35;;
51358;SDS011;37448;51.588;7.248;2024-03-02T06:38:23;2.72;;;1.30;;
51358;SDS011;37448;51.588;7.248;2024-03-02T06:40:24;2.85;;;1.55;;
51358;SDS011;37448;51.588;7.248;2024-03-02T06:42:24;3.53;;;1.90;;
51358;SDS011;37448;51.588;7.248;2024-03-02T06:44:24;2.72;;;1.45;;
51358;SDS011;37448;51.588;7.248;2024-03-02T06:46:25;4.78;;;1.83;;
51358;SDS011;37448;51.588;7.248;2024-03-02T06:48:26;3.13;;;1.92;;
51358;SDS011;37448;51.588;7.248;2024-03-02T06:50:26;3.15;;;1.77;;
51358;SDS011;37448;51.588;7.248;2024-03-02T06:52:26;2.10;;;1.40;;
51358;SDS011;37448;51.588;7.248;2024-03-02T06:54:27;2.38;;;1.50;;
51358;SDS011;37448;51.588;7.248;2024-03-02T06:56:27;3.38;;;1.80;;
51358;SDS011;37448;51.588;7.248;2024-03-02T06:58:28;2.13;;;1.13;;
51358;SDS011;37448;51.588;7.248;2024-03-02T07:00:28;2.63;;;1.80;;
51358;SDS011;37448;51.588;7.248;2024-03-02T07:02:29;3.53;;;1.88;;
51358;SDS011;37448;51.588;7.248;2024-03-02T07:04:29;2.85;;;1.45;;
51358;SDS011;37448;51.588;7.248;2024-03-02T07:06:29;1.50;;;1.20;;
51358;SDS011;37448;51.588;7.248;2024-03-02T07:08:30;2.35;;;1.48;;
51358;SDS011;37448;51.588;7.248;2024-03-02T07:10:30;3.10;;;1.73;;
51358;SDS011;37448;51.588;7.248;2024-03-02T07:12:31;1.60;;;1.20;;
51358;SDS011;37448;51.588;7.248;2024-03-02T07:14:31;4.47;;;1.65;;
51358;SDS011;37448;51.588;7.248;2024-03-02T07:16:50;2.75;;;1.70;;
51358;SDS011;37448;51.588;7.248;2024-03-02T07:18:50;3.55;;;1.67;;
51358;SDS011;37448;51.588;7.248;2024-03-02T07:20:51;2.45;;;1.55;;
51358;SDS011;37448;51.588;7.248;2024-03-02T07:22:52;4.97;;;1.80;;
51358;SDS011;37448;51.588;7.248;2024-03-02T07:24:52;5.03;;;1.80;;
51358;SDS011;37448;51.588;7.248;2024-03-02T07:26:53;2.97;;;2.08;;
51358;SDS011;37448;51.588;7.248;2024-03-02T07:28:53;2.05;;;1.40;;
51358;SDS011;37448;51.588;7.248;2024-03-02T07:31:03;2.63;;;1.55;;
51358;SDS011;37448;51.588;7.248;2024-03-02T07:33:04;2.75;;;2.10;;
51358;SDS011;37448;51.588;7.248;2024-03-02T07:35:05;4.80;;;1.65;;
51358;SDS011;37448;51.588;7.248;2024-03-02T07:37:05;2.15;;;1.75;;
51358;SDS011;37448;51.588;7.248;2024-03-02T07:39:06;2.75;;;1.17;;
51358;SDS011;37448;51.588;7.248;2024-03-02T07:41:08;2.40;;;1.60;;
51358;SDS011;37448;51.588;7.248;2024-03-02T07:43:09;2.33;;;1.40;;
51358;SDS011;37448;51.588;7.248;2024-03-02T07:45:09;2.05;;;1.35;;
51358;SDS011;37448;51.588;7.248;2024-03-02T07:47:09;2.83;;;1.52;;
51358;SDS011;37448;51.588;7.248;2024-03-02T07:49:10;1.95;;;1.30;;
51358;SDS011;37448;51.588;7.248;2024-03-02T07:51:10;2.60;;;1.13;;
51358;SDS011;37448;51.588;7.248;2024-03-02T07:53:11;2.33;;;1.48;;
51358;SDS011;37448;51.588;7.248;2024-03-02T07:55:11;2.92;;;1.40;;
51358;SDS011;37448;51.588;7.248;2024-03-02T07:57:12;2.25;;;1.45;;
51358;SDS011;37448;51.588;7.248;2024-03-02T07:59:12;2.78;;;1.60;;
51358;SDS011;37448;51.588;7.248;2024-03-02T08:01:13;2.42;;;1.42;;
51358;SDS011;37448;51.588;7.248;2024-03-02T08:03:13;3.00;;;1.33;;
51358;SDS011;37448;51.588;7.248;2024-03-02T08:05:14;2.08;;;1.23;;
51358;SDS011;37448;51.588;7.248;2024-03-02T08:07:15;2.28;;;1.50;;
51358;SDS011;37448;51.588;7.248;2024-03-02T08:09:16;3.38;;;1.85;;
51358;SDS011;37448;51.588;7.248;2024-03-02T08:11:16;3.08;;;1.33;;
51358;SDS011;37448;51.588;7.248;2024-03-02T08:13:17;3.08;;;1.60;;
51358;SDS011;37448;51.588;7.248;2024-03-02T08:15:18;3.50;;;1.65;;
51358;SDS011;37448;51.588;7.248;2024-03-02T08:17:18;2.45;;;1.30;;
51358;SDS011;37448;51.588;7.248;2024-03-02T08:19:18;3.05;;;1.40;;
51358;SDS011;37448;51.588;7.248;2024-03-02T08:21:19;3.03;;;1.70;;
51358;SDS011;37448;51.588;7.248;2024-03-02T08:23:21;1.98;;;1.00;;
51358;SDS011;37448;51.588;7.248;2024-03-02T08:25:21;2.70;;;1.73;;
51358;SDS011;37448;51.588;7.248;2024-03-02T08:27:22;3.40;;;1.55;;
51358;SDS011;37448;51.588;7.248;2024-03-02T08:29:23;3.28;;;1.63;;
51358;SDS011;37448;51.588;7.248;2024-03-02T08:31:23;2.63;;;1.30;;
51358;SDS011;37448;51.588;7.248;2024-03-02T08:33:23;1.77;;;1.20;;
51358;SDS011;37448;51.588;7.248;2024-03-02T08:35:24;2.03;;;1.20;;
51358;SDS011;37448;51.588;7.248;2024-03-02T08:37:24;4.35;;;1.35;;
51358;SDS011;37448;51.588;7.248;2024-03-02T08:39:25;2.40;;;1.58;;
51358;SDS011;37448;51.588;7.248;2024-03-02T08:41:25;2.53;;;1.33;;
51358;SDS011;37448;51.588;7.248;2024-03-02T08:43:26;4.25;;;1.30;;
51358;SDS011;37448;51.588;7.248;2024-03-02T08:45:26;2.17;;;1.08;;
51358;SDS011;37448;51.588;7.248;2024-03-02T08:47:27;2.25;;;1.20;;
51358;SDS011;37448;51.588;7.248;2024-03-02T08:49:27;2.85;;;1.13;;
51358;SDS011;37448;51.588;7.248;2024-03-02T08:51:28;1.85;;;1.00;;
51358;SDS011;37448;51.588;7.248;2024-03-02T08:53:28;2.60;;;1.25;;
51358;SDS011;37448;51.588;7.248;2024-03-02T08:55:28;2.22;;;1.23;;
51358;SDS011;37448;51.588;7.248;2024-03-02T08:57:29;1.60;;;1.30;;
51358;SDS011;37448;51.588;7.248;2024-03-02T08:59:29;1.83;;;1.00;;
51358;SDS011;37448;51.588;7.248;2024-03-02T09:01:30;1.23;;;1.10;;
51358;SDS011;37448;51.588;7.248;2024-03-02T09:03:30;2.55;;;1.17;;
51358;SDS011;37448;51.588;7.248;2024-03-02T09:05:33;2.35;;;1.00;;
51358;SDS011;37448;51.588;7.248;2024-03-02T09:07:33;2.35;;;1.20;;
51358;SDS011;37448;51.588;7.248;2024-03-02T09:09:34;0.90;;;0.73;;
51358;SDS011;37448;51.588;7.248;2024-03-02T09:11:34;1.67;;;0.88;;
51358;SDS011;37448;51.588;7.248;2024-03-02T09:13:36;1.75;;;0.90;;
51358;SDS011;37448;51.588;7.248;2024-03-02T09:15:37;1.92;;;1.02;;
51358;SDS011;37448;51.588;7.248;2024-03-02T09:17:39;2.45;;;1.10;;
51358;SDS011;37448;51.588;7.248;2024-03-02T09:19:40;2.78;;;1.00;;
51358;SDS011;37448;51.588;7.248;2024-03-02T09:21:41;2.05;;;0.90;;
51358;SDS011;37448;51.588;7.248;2024-03-02T09:23:42;2.65;;;0.80;;
51358;SDS011;37448;51.588;7.248;2024-03-02T09:25:44;1.40;;;0.80;;
51358;SDS011;37448;51.588;7.248;2024-03-02T09:27:44;1.30;;;0.95;;
51358;SDS011;37448;51.588;7.248;2024-03-02T09:29:45;2.33;;;0.85;;
51358;SDS011;37448;51.588;7.248;2024-03-02T09:31:45;1.70;;;0.90;;
51358;SDS011;37448;51.588;7.248;2024-03-02T09:33:46;1.75;;;0.88;;
51358;SDS011;37448;51.588;7.248;2024-03-02T09:35:46;2.35;;;0.57;;
51358;SDS011;37448;51.588;7.248;2024-03-02T09:37:48;2.75;;;1.23;;
51358;SDS011;37448;51.588;7.248;2024-03-02T09:39:49;2.17;;;1.02;;
51358;SDS011;37448;51.588;7.248;2024-03-02T09:41:49;2.15;;;0.90;;
51358;SDS011;37448;51.588;7.248;2024-03-02T09:43:50;1.30;;;0.90;;
51358;SDS011;37448;51.588;7.248;2024-03-02T09:45:51;1.15;;;0.88;;
51358;SDS011;37448;51.588;7.248;2024-03-02T09:47:51;1.23;;;0.85;;
51358;SDS011;37448;51.588;7.248;2024-03-02T09:49:52;1.95;;;0.90;;
51358;SDS011;37448;51.588;7.248;2024-03-02T09:51:52;1.10;;;0.95;;
51358;SDS011;37448;51.588;7.248;2024-03-02T09:53:53;1.23;;;0.80;;
51358;SDS011;37448;51.588;7.248;2024-03-02T09:55:55;1.55;;;0.70;;
51358;SDS011;37448;51.588;7.248;2024-03-02T09:57:56;2.22;;;1.02;;
51358;SDS011;37448;51.588;7.248;2024-03-02T09:59:56;1.75;;;0.95;;
51358;SDS011;37448;51.588;7.248;2024-03-02T10:04:01;1.90;;;0.90;;
51358;SDS011;37448;51.588;7.248;2024-03-02T10:06:20;2.28;;;0.82;;
51358;SDS011;37448;51.588;7.248;2024-03-02T10:08:25;2.35;;;0.65;;
51358;SDS011;37448;51.588;7.248;2024-03-02T10:10:26;3.75;;;1.02;;
51358;SDS011;37448;51.588;7.248;2024-03-02T10:12:36;1.30;;;0.60;;
51358;SDS011;37448;51.588;7.248;2024-03-02T10:14:36;2.38;;;0.90;;
51358;SDS011;37448;51.588;7.248;2024-03-02T10:16:37;2.17;;;0.60;;
51358;SDS011;37448;51.588;7.248;2024-03-02T10:18:38;1.15;;;1.00;;
51358;SDS011;37448;51.588;7.248;2024-03-02T10:20:39;0.85;;;0.40;;
51358;SDS011;37448;51.588;7.248;2024-03-02T10:22:40;1.95;;;0.70;;
51358;SDS011;37448;51.588;7.248;2024-03-02T10:24:41;1.05;;;0.55;;
51358;SDS011;37448;51.588;7.248;2024-03-02T10:26:44;2.22;;;0.82;;
51358;SDS011;37448;51.588;7.248;2024-03-02T10:28:47;3.78;;;0.52;;
51358;SDS011;37448;51.588;7.248;2024-03-02T10:30:48;2.15;;;0.68;;
51358;SDS011;37448;51.588;7.248;2024-03-02T10:32:50;2.28;;;0.65;;
51358;SDS011;37448;51.588;7.248;2024-03-02T10:34:50;1.95;;;0.77;;
51358;SDS011;37448;51.588;7.248;2024-03-02T10:36:50;2.45;;;0.80;;
51358;SDS011;37448;51.588;7.248;2024-03-02T10:38:51;2.95;;;0.80;;
51358;SDS011;37448;51.588;7.248;2024-03-02T10:40:55;1.02;;;0.50;;
51358;SDS011;37448;51.588;7.248;2024-03-02T10:42:59;1.55;;;0.50;;
51358;SDS011;37448;51.588;7.248;2024-03-02T10:47:03;1.23;;;0.60;;
51358;SDS011;37448;51.588;7.248;2024-03-02T10:49:05;1.23;;;0.60;;
51358;SDS011;37448;51.588;7.248;2024-03-02T10:51:06;2.78;;;0.82;;
51358;SDS011;37448;51.588;7.248;2024-03-02T10:53:06;4.05;;;1.33;;
51358;SDS011;37448;51.588;7.248;2024-03-02T10:55:07;1.42;;;0.60;;
51358;SDS011;37448;51.588;7.248;2024-03-02T10:57:09;1.90;;;0.55;;
51358;SDS011;37448;51.588;7.248;2024-03-02T10:59:16;1.20;;;0.30;;
51358;SDS011;37448;51.588;7.248;2024-03-02T11:01:26;1.15;;;0.60;;
51358;SDS011;37448;51.588;7.248;2024-03-02T11:03:29;1.48;;;0.65;;
51358;SDS011;37448;51.588;7.248;2024-03-02T11:05:36;1.80;;;0.45;;
51358;SDS011;37448;51.588;7.248;2024-03-02T11:07:38;1.75;;;0.63;;
51358;SDS011;37448;51.588;7.248;2024-03-02T11:09:40;1.15;;;0.50;;
51358;SDS011;37448;51.588;7.248;2024-03-02T11:11:44;1.67;;;0.60;;
51358;SDS011;37448;51.588;7.248;2024-03-02T11:15:59;1.33;;;0.60;;
51358;SDS011;37448;51.588;7.248;2024-03-02T11:18:04;1.40;;;0.43;;
51358;SDS011;37448;51.588;7.248;2024-03-02T11:20:08;1.73;;;0.60;;
51358;SDS011;37448;51.588;7.248;2024-03-02T11:22:10;0.85;;;0.50;;
51358;SDS011;37448;51.588;7.248;2024-03-02T11:26:21;1.25;;;0.60;;
51358;SDS011;37448;51.588;7.248;2024-03-02T11:28:34;1.98;;;0.80;;
51358;SDS011;37448;51.588;7.248;2024-03-02T11:32:37;2.35;;;0.80;;
51358;SDS011;37448;51.588;7.248;2024-03-02T11:34:38;2.30;;;0.70;;
51358;SDS011;37448;51.588;7.248;2024-03-02T11:36:39;1.80;;;0.70;;
51358;SDS011;37448;51.588;7.248;2024-03-02T11:38:39;1.45;;;0.60;;
51358;SDS011;37448;51.588;7.248;2024-03-02T11:40:44;2.33;;;0.55;;
51358;SDS011;37448;51.588;7.248;2024-03-02T11:42:45;3.55;;;0.60;;
51358;SDS011;37448;51.588;7.248;2024-03-02T11:44:46;1.77;;;0.60;;
51358;SDS011;37448;51.588;7.248;2024-03-02T11:46:52;1.88;;;0.73;;
51358;SDS011;37448;51.588;7.248;2024-03-02T11:48:54;1.27;;;0.60;;
51358;SDS011;37448;51.588;7.248;2024-03-02T11:50:54;1.83;;;0.70;;
51358;SDS011;37448;51.588;7.248;2024-03-02T11:52:58;1.35;;;0.50;;
51358;SDS011;37448;51.588;7.248;2024-03-02T11:54:58;1.70;;;0.50;;
51358;SDS011;37448;51.588;7.248;2024-03-02T11:57:03;2.03;;;0.50;;
51358;SDS011;37448;51.588;7.248;2024-03-02T11:59:04;1.00;;;0.38;;
51358;SDS011;37448;51.588;7.248;2024-03-02T12:01:05;3.00;;;0.50;;
51358;SDS011;37448;51.588;7.248;2024-03-02T12:03:09;1.40;;;0.40;;
51358;SDS011;37448;51.588;7.248;2024-03-02T12:05:13;1.75;;;0.57;;
51358;SDS011;37448;51.588;7.248;2024-03-02T12:07:18;2.15;;;0.47;;
51358;SDS011;37448;51.588;7.248;2024-03-02T12:09:23;0.60;;;0.43;;
51358;SDS011;37448;51.588;7.248;2024-03-02T12:11:24;1.63;;;0.68;;
51358;SDS011;37448;51.588;7.248;2024-03-02T12:13:24;1.27;;;0.50;;
51358;SDS011;37448;51.588;7.248;2024-03-02T12:15:28;1.45;;;0.50;;
51358;SDS011;37448;51.588;7.248;2024-03-02T12:17:29;0.90;;;0.55;;
51358;SDS011;37448;51.588;7.248;2024-03-02T12:19:30;1.13;;;0.70;;
51358;SDS011;37448;51.588;7.248;2024-03-02T12:21:31;1.95;;;0.60;;
51358;SDS011;37448;51.588;7.248;2024-03-02T12:23:32;0.52;;;0.40;;
51358;SDS011;37448;51.588;7.248;2024-03-02T12:25:32;1.20;;;0.60;;